createdAt,value
2017-12-13T00:01:51.361Z,6.15
2017-12-13T00:04:22.968Z,6.30
2017-12-13T00:06:54.179Z,6.43
2017-12-13T00:09:24.977Z,6.68
2017-12-13T00:11:56.904Z,9.32
2017-12-13T00:14:28.336Z,5.12
2017-12-13T00:17:00.983Z,6.03
2017-12-13T00:19:31.904Z,5.07
2017-12-13T00:22:03.280Z,4.07
2017-12-13T00:24:34.200Z,4.75
2017-12-13T00:27:04.591Z,4.32
2017-12-13T00:29:35.904Z,5.97
2017-12-13T00:32:06.640Z,6.28
2017-12-13T00:34:37.628Z,5.18
2017-12-13T00:37:08.740Z,5.82
2017-12-13T00:39:39.367Z,4.30
2017-12-13T00:42:10.837Z,4.40
2017-12-13T00:44:41.593Z,4.22
2017-12-13T00:47:12.188Z,4.35
2017-12-13T00:49:43.285Z,4.12
2017-12-13T00:52:14.654Z,3.55
2017-12-13T00:54:45.295Z,3.20
2017-12-13T00:57:16.336Z,4.00
2017-12-13T00:59:47.392Z,4.40
2017-12-13T01:02:18.339Z,5.10
2017-12-13T01:04:49.003Z,4.10
2017-12-13T01:07:19.952Z,4.40
2017-12-13T01:09:51.172Z,4.10
2017-12-13T01:12:22.049Z,4.75
2017-12-13T01:14:53.028Z,4.45
2017-12-13T01:17:24.236Z,6.28
2017-12-13T01:19:55.260Z,4.65
2017-12-13T01:22:26.368Z,5.37
2017-12-13T01:24:57.245Z,6.37
2017-12-13T01:27:28.619Z,8.80
2017-12-13T01:30:00.204Z,4.50
2017-12-13T01:32:31.076Z,5.20
2017-12-13T01:35:02.368Z,4.50
2017-12-13T01:37:33.398Z,4.12
2017-12-13T01:40:04.326Z,4.43
2017-12-13T01:42:36.324Z,8.75
2017-12-13T01:45:07.233Z,10.60
2017-12-13T01:47:38.612Z,8.23
2017-12-13T01:50:11.013Z,27.37
2017-12-13T01:52:42.322Z,35.75
2017-12-13T01:55:13.332Z,34.23
2017-12-13T01:57:44.248Z,23.27
2017-12-13T02:00:15.424Z,27.00
2017-12-13T02:02:47.029Z,22.92
2017-12-13T02:05:26.768Z,17.25
2017-12-13T02:07:58.776Z,12.20
2017-12-13T02:10:30.829Z,5.70
2017-12-13T02:13:01.824Z,6.40
2017-12-13T02:15:34.540Z,5.70
2017-12-13T02:18:05.492Z,7.23
2017-12-13T02:20:36.493Z,5.10
2017-12-13T02:23:08.431Z,5.97
2017-12-13T02:25:39.133Z,5.68
2017-12-13T02:28:10.084Z,9.60
2017-12-13T02:30:41.228Z,5.03
2017-12-13T02:33:12.492Z,5.03
2017-12-13T02:35:43.513Z,4.75
2017-12-13T02:38:14.840Z,4.78
2017-12-13T02:41:16.591Z,4.20
2017-12-13T02:43:48.653Z,4.90
2017-12-13T02:46:19.625Z,3.20
2017-12-13T02:48:50.400Z,2.87
2017-12-13T02:51:21.883Z,3.28
2017-12-13T02:53:53.632Z,4.40
2017-12-13T02:56:25.882Z,4.23
2017-12-13T02:58:56.956Z,5.18
2017-12-13T03:01:27.909Z,3.75
2017-12-13T03:03:59.296Z,3.93
2017-12-13T03:06:30.215Z,4.60
2017-12-13T03:09:01.308Z,3.05
2017-12-13T03:11:32.757Z,3.83
2017-12-13T03:14:03.959Z,2.83
2017-12-13T03:16:35.041Z,3.42
2017-12-13T03:19:06.513Z,3.80
2017-12-13T03:21:37.497Z,2.55
2017-12-13T03:24:08.764Z,2.80
2017-12-13T03:26:41.179Z,5.33
2017-12-13T03:29:12.080Z,2.97
2017-12-13T03:31:43.194Z,4.37
2017-12-13T03:34:15.118Z,2.87
2017-12-13T03:36:46.504Z,3.30
2017-12-13T03:39:18.188Z,2.60
2017-12-13T03:41:50.064Z,2.95
2017-12-13T03:44:21.367Z,3.90
2017-12-13T03:46:52.481Z,3.03
2017-12-13T03:49:23.461Z,3.03
2017-12-13T03:51:54.197Z,5.07
2017-12-13T03:54:25.355Z,2.97
2017-12-13T03:56:56.271Z,3.47
2017-12-13T03:59:27.844Z,3.40
2017-12-13T04:01:59.176Z,3.72
2017-12-13T04:04:31.521Z,3.80
2017-12-13T04:07:02.494Z,4.67
2017-12-13T04:09:33.453Z,6.10
2017-12-13T04:12:04.576Z,3.43
2017-12-13T04:14:35.173Z,3.90
2017-12-13T04:17:05.809Z,3.00
2017-12-13T04:19:36.496Z,3.20
2017-12-13T04:22:07.158Z,3.58
2017-12-13T04:24:38.126Z,3.72
2017-12-13T04:27:08.915Z,3.10
2017-12-13T04:29:40.308Z,3.60
2017-12-13T04:32:11.144Z,4.20
2017-12-13T04:34:41.869Z,2.90
2017-12-13T04:37:12.804Z,7.40
2017-12-13T04:39:43.578Z,7.75
2017-12-13T04:42:15.232Z,26.83
2017-12-13T04:44:47.918Z,21.40
2017-12-13T04:47:18.804Z,12.93
2017-12-13T04:49:50.201Z,8.80
2017-12-13T04:52:21.136Z,4.25
2017-12-13T04:54:51.761Z,3.67
2017-12-13T04:57:22.444Z,4.55
2017-12-13T04:59:54.131Z,3.23
2017-12-13T05:02:25.256Z,2.78
2017-12-13T05:04:56.289Z,2.62
2017-12-13T05:07:27.226Z,3.05
2017-12-13T05:09:58.364Z,4.57
2017-12-13T05:12:30.976Z,3.05
2017-12-13T05:15:02.858Z,4.30
2017-12-13T05:17:33.860Z,4.53
2017-12-13T05:20:04.824Z,3.47
2017-12-13T05:22:36.164Z,4.70
2017-12-13T05:25:06.812Z,8.40
2017-12-13T05:27:38.252Z,4.07
2017-12-13T05:30:09.159Z,6.40
2017-12-13T05:32:39.920Z,4.03
2017-12-13T05:35:10.594Z,4.85
2017-12-13T05:37:42.382Z,4.75
2017-12-13T05:40:13.001Z,4.80
2017-12-13T05:42:44.372Z,3.10
2017-12-13T05:45:15.485Z,10.27
2017-12-13T05:47:46.120Z,4.80
2017-12-13T05:50:17.633Z,5.47
2017-12-13T05:52:49.843Z,3.83
2017-12-13T05:55:20.444Z,4.83
2017-12-13T05:57:51.124Z,8.60
2017-12-13T06:00:22.132Z,5.85
2017-12-13T06:02:52.844Z,5.00
2017-12-13T06:05:23.532Z,5.78
2017-12-13T06:07:55.178Z,4.45
2017-12-13T06:10:25.776Z,6.37
2017-12-13T06:12:56.764Z,9.05
2017-12-13T06:15:27.392Z,5.90
2017-12-13T06:17:58.585Z,6.72
2017-12-13T06:20:29.247Z,7.68
2017-12-13T06:22:59.935Z,9.53
2017-12-13T06:25:30.576Z,8.32
2017-12-13T06:28:01.520Z,6.15
2017-12-13T06:30:33.376Z,5.53
2017-12-13T06:33:04.108Z,7.07
2017-12-13T06:35:34.810Z,5.28
2017-12-13T06:38:05.601Z,3.70
2017-12-13T06:40:36.245Z,4.70
2017-12-13T06:43:06.920Z,4.78
2017-12-13T06:45:38.293Z,5.17
2017-12-13T06:48:09.259Z,4.90
2017-12-13T06:50:40.015Z,5.70
2017-12-13T06:53:10.786Z,6.47
2017-12-13T06:55:41.709Z,3.97
2017-12-13T06:58:12.343Z,3.83
2017-12-13T07:00:43.029Z,6.10
2017-12-13T07:03:13.874Z,5.68
2017-12-13T07:05:44.524Z,5.97
2017-12-13T07:08:15.505Z,4.18
2017-12-13T07:10:47.007Z,3.40
2017-12-13T07:13:17.776Z,3.80
2017-12-13T07:15:48.805Z,7.40
2017-12-13T07:18:19.833Z,3.58
2017-12-13T07:20:50.585Z,6.35
2017-12-13T07:23:21.236Z,4.78
2017-12-13T07:25:51.944Z,3.08
2017-12-13T07:28:22.928Z,7.57
2017-12-13T07:33:38.282Z,6.97
2017-12-13T07:36:09.908Z,3.10
2017-12-13T07:38:41.445Z,4.80
2017-12-13T07:41:13.380Z,3.22
2017-12-13T07:43:45.987Z,2.40
2017-12-13T07:46:18.577Z,4.40
2017-12-13T07:48:51.788Z,4.35
2017-12-13T07:51:30.662Z,4.50
2017-12-13T07:54:16.997Z,3.75
2017-12-13T07:56:49.343Z,4.83
2017-12-13T07:59:21.962Z,6.45
2017-12-13T08:01:56.016Z,4.72
2017-12-13T08:04:31.021Z,7.93
2017-12-13T08:07:01.677Z,9.00
2017-12-13T08:09:32.429Z,8.82
2017-12-13T08:12:03.721Z,8.32
2017-12-13T08:14:34.609Z,14.38
2017-12-13T08:17:05.368Z,10.40
2017-12-13T08:19:37.276Z,10.30
2017-12-13T08:22:08.180Z,7.30
2017-12-13T08:24:38.916Z,5.90
2017-12-13T08:27:09.953Z,13.00
2017-12-13T08:30:27.736Z,7.28
2017-12-13T08:33:04.871Z,5.30
2017-12-13T08:35:36.842Z,4.37
2017-12-13T08:38:11.377Z,3.92
2017-12-13T08:40:43.183Z,4.18
2017-12-13T08:43:15.438Z,5.85
2017-12-13T08:45:47.113Z,4.65
2017-12-13T08:48:22.087Z,6.22
2017-12-13T08:50:54.587Z,4.45
2017-12-13T08:53:47.055Z,7.43
2017-12-13T08:57:10.505Z,8.23
2017-12-13T08:59:42.279Z,7.40
2017-12-13T09:02:14.811Z,5.40
2017-12-13T09:04:46.658Z,4.80
2017-12-13T09:07:18.217Z,11.55
2017-12-13T09:09:51.123Z,5.62
2017-12-13T09:12:24.093Z,2.20
2017-12-13T09:14:57.156Z,2.83
2017-12-13T09:17:29.080Z,4.10
2017-12-13T09:21:38.265Z,3.08
2017-12-13T09:24:12.187Z,4.35
2017-12-13T09:26:45.550Z,6.35
2017-12-13T09:32:03.776Z,2.60
2017-12-13T09:34:39.305Z,5.13
2017-12-13T09:37:15.291Z,3.10
2017-12-13T09:39:46.919Z,4.10
2017-12-13T09:42:17.676Z,10.87
2017-12-13T09:44:48.360Z,7.87
2017-12-13T09:47:19.446Z,4.68
2017-12-13T09:49:50.977Z,3.83
2017-12-13T09:52:23.103Z,2.55
2017-12-13T09:54:54.809Z,2.20
2017-12-13T09:57:25.604Z,2.10
2017-12-13T09:59:56.457Z,2.25
2017-12-13T10:02:27.531Z,2.78
2017-12-13T10:04:58.213Z,2.30
2017-12-13T10:07:30.850Z,1.50
2017-12-13T10:10:03.690Z,3.30
2017-12-13T10:12:36.943Z,2.60
2017-12-13T10:15:08.035Z,4.25
2017-12-13T10:17:39.321Z,1.70
2017-12-13T10:20:16.334Z,5.10
2017-12-13T10:22:50.137Z,4.67
2017-12-13T10:25:20.809Z,8.82
2017-12-13T10:27:51.507Z,5.15
2017-12-13T10:30:30.273Z,4.35
2017-12-13T10:33:05.444Z,4.78
2017-12-13T10:35:37.992Z,5.15
2017-12-13T10:38:15.544Z,2.62
2017-12-13T10:40:53.266Z,2.97
2017-12-13T10:43:25.019Z,2.78
2017-12-13T10:46:00.029Z,3.60
2017-12-13T10:48:40.930Z,4.20
2017-12-13T10:51:28.872Z,2.35
2017-12-13T10:54:02.470Z,2.83
2017-12-13T10:56:37.692Z,2.43
2017-12-13T10:59:08.645Z,5.40
2017-12-13T11:01:40.163Z,3.77
2017-12-13T11:04:11.575Z,1.90
2017-12-13T11:06:45.952Z,3.50
2017-12-13T11:09:17.489Z,5.78
2017-12-13T11:11:50.180Z,5.80
2017-12-13T11:14:21.338Z,3.35
2017-12-13T11:16:52.785Z,2.45
2017-12-13T11:19:23.501Z,2.50
2017-12-13T11:21:56.955Z,3.80
2017-12-13T11:24:29.269Z,2.00
2017-12-13T11:29:41.849Z,7.30
2017-12-13T11:32:21.847Z,5.65
2017-12-13T11:35:01.845Z,6.40
2017-12-13T11:37:41.359Z,4.70
2017-12-13T11:40:16.855Z,9.20
2017-12-13T11:42:48.864Z,4.60
2017-12-13T11:45:19.642Z,5.03
2017-12-13T11:47:51.476Z,6.00
2017-12-13T11:50:27.327Z,4.25
2017-12-13T11:53:04.129Z,5.17
2017-12-13T11:55:38.803Z,4.05
2017-12-13T11:58:09.951Z,7.37
2017-12-13T12:00:41.710Z,4.40
2017-12-13T12:03:12.579Z,8.50
2017-12-13T12:05:43.873Z,4.18
2017-12-13T12:08:15.668Z,7.85
2017-12-13T12:10:49.493Z,4.20
2017-12-13T12:13:30.687Z,7.40
2017-12-13T12:16:10.869Z,6.97
2017-12-13T12:18:52.078Z,5.93
2017-12-13T12:21:24.092Z,6.15
2017-12-13T12:23:56.448Z,4.37
2017-12-13T12:26:28.812Z,5.40
2017-12-13T12:28:59.471Z,6.10
2017-12-13T12:31:30.452Z,3.12
2017-12-13T12:34:13.297Z,5.40
2017-12-13T12:36:54.570Z,5.47
2017-12-13T12:39:25.275Z,6.05
2017-12-13T12:41:59.922Z,4.95
2017-12-13T12:44:36.005Z,4.82
2017-12-13T12:47:17.594Z,4.85
2017-12-13T12:50:00.714Z,5.05
2017-12-13T12:52:39.752Z,2.30
2017-12-13T12:55:17.801Z,5.80
2017-12-13T12:57:50.636Z,5.35
2017-12-13T13:00:22.261Z,5.82
2017-12-13T13:03:00.759Z,3.70
2017-12-13T13:05:47.520Z,2.72
2017-12-13T13:08:31.450Z,4.03
2017-12-13T13:11:12.588Z,2.70
2017-12-13T13:13:45.969Z,1.67
2017-12-13T13:16:18.586Z,2.57
2017-12-13T13:18:49.506Z,3.97
2017-12-13T13:23:21.574Z,6.93
2017-12-13T13:25:59.358Z,3.33
2017-12-13T13:28:31.278Z,6.45
2017-12-13T13:31:06.297Z,4.13
2017-12-13T13:33:37.207Z,4.45
2017-12-13T13:36:07.976Z,4.53
2017-12-13T13:38:39.915Z,7.15
2017-12-13T13:41:10.945Z,6.55
2017-12-13T13:43:45.196Z,5.83
2017-12-13T13:46:24.939Z,6.05
2017-12-13T14:32:46.087Z,6.22
2017-12-13T14:35:18.399Z,5.70
2017-12-13T14:37:49.191Z,4.00
2017-12-13T14:40:21.321Z,4.32
2017-12-13T14:42:54.881Z,4.07
2017-12-13T14:45:30.918Z,4.75
2017-12-13T14:48:03.542Z,4.22
2017-12-13T14:50:44.781Z,5.87
2017-12-13T14:53:24.005Z,8.10
2017-12-13T14:55:55.292Z,5.85
2017-12-13T14:58:27.575Z,5.10
2017-12-13T15:01:08.460Z,5.35
2017-12-13T15:03:40.081Z,5.28
2017-12-13T15:26:28.856Z,5.30
2017-12-13T15:28:59.626Z,3.03
2017-12-13T15:31:30.316Z,3.28
2017-12-13T15:34:01.039Z,3.28
2017-12-13T15:36:31.305Z,7.37
2017-12-13T15:39:09.087Z,9.23
2017-12-13T15:41:40.515Z,6.15
2017-12-13T15:44:11.168Z,6.67
2017-12-13T15:46:41.639Z,6.33
2017-12-13T15:49:12.277Z,3.80
2017-12-13T15:51:43.251Z,5.15
2017-12-13T15:54:13.918Z,1.77
2017-12-13T15:56:44.574Z,7.20
2017-12-13T15:59:15.214Z,4.07
2017-12-13T16:01:45.577Z,1.65
2017-12-13T16:04:15.841Z,2.53
2017-12-13T16:06:47.580Z,3.60
2017-12-13T16:09:18.297Z,2.50
2017-12-13T16:11:48.643Z,3.03
2017-12-13T16:14:19.311Z,3.55
2017-12-13T16:16:50.009Z,3.03
2017-12-13T16:19:21.069Z,2.47
2017-12-13T16:21:51.708Z,2.67
2017-12-13T16:24:22.111Z,2.73
2017-12-13T16:26:52.696Z,2.20
2017-12-13T16:29:23.731Z,2.42
2017-12-13T16:31:54.492Z,2.20
2017-12-13T16:34:24.879Z,2.90
2017-12-13T16:36:55.761Z,3.40
2017-12-13T16:39:26.202Z,2.53
2017-12-13T16:41:56.301Z,4.67
2017-12-13T16:44:27.063Z,2.10
2017-12-13T16:46:59.771Z,1.80
2017-12-13T16:49:30.473Z,1.73
2017-12-13T16:52:10.980Z,3.10
2017-12-13T16:54:47.602Z,1.90
2017-12-13T16:57:21.881Z,2.20
2017-12-13T16:59:53.472Z,3.50
2017-12-13T17:02:24.378Z,2.20
2017-12-13T17:04:54.426Z,3.65
2017-12-13T17:07:24.853Z,3.33
2017-12-13T17:09:55.471Z,2.20
2017-12-13T17:56:08.173Z,2.80
2017-12-13T17:58:38.699Z,1.85
2017-12-13T18:01:09.649Z,1.92
2017-12-13T18:03:40.428Z,2.08
2017-12-13T18:06:10.975Z,2.20
2017-12-13T18:08:41.555Z,1.80
2017-12-13T18:11:11.811Z,2.97
2017-12-13T18:13:42.361Z,1.75
2017-12-13T18:16:13.794Z,1.90
2017-12-13T18:18:45.160Z,2.28
2017-12-13T18:21:15.747Z,4.97
2017-12-13T18:23:46.643Z,5.25
2017-12-13T18:26:17.988Z,3.50
2017-12-13T18:28:48.101Z,2.77
2017-12-13T18:31:18.175Z,2.90
2017-12-13T18:33:49.462Z,3.62
2017-12-13T18:36:20.669Z,2.80
2017-12-13T18:38:51.679Z,2.20
2017-12-13T18:41:22.426Z,2.40
2017-12-13T18:43:54.408Z,2.50
2017-12-13T18:46:24.497Z,2.22
2017-12-13T18:48:55.282Z,4.15
2017-12-13T18:51:27.215Z,1.80
2017-12-13T18:53:57.720Z,6.10
2017-12-13T18:56:28.817Z,1.65
2017-12-13T18:58:59.710Z,2.67
2017-12-13T19:01:30.715Z,1.80
2017-12-13T19:04:02.191Z,2.90
2017-12-13T19:06:32.350Z,2.40
2017-12-13T19:09:03.350Z,3.10
2017-12-13T19:11:48.729Z,2.45
2017-12-13T19:14:19.040Z,2.37
2017-12-13T19:16:51.164Z,2.80
2017-12-13T19:19:21.622Z,2.50
2017-12-13T19:21:52.275Z,1.45
2017-12-13T19:24:22.726Z,2.53
2017-12-13T19:26:54.074Z,2.10
2017-12-13T19:29:24.203Z,1.83
2017-12-13T19:31:55.071Z,2.00
2017-12-13T19:34:25.182Z,2.72
2017-12-13T19:36:56.087Z,1.57
2017-12-13T19:39:26.694Z,1.50
2017-12-13T19:41:56.912Z,2.30
2017-12-13T19:44:27.791Z,1.90
2017-12-13T19:46:57.983Z,1.70
2017-12-13T19:49:28.486Z,2.15
2017-12-13T19:51:58.951Z,3.30
2017-12-13T19:54:29.569Z,3.40
2017-12-13T19:57:00.191Z,1.52
2017-12-13T19:59:30.693Z,3.53
2017-12-13T20:02:00.772Z,1.67
2017-12-13T20:04:31.396Z,3.12
2017-12-13T20:07:02.240Z,2.10
2017-12-13T20:09:32.353Z,2.80
2017-12-13T20:12:03.246Z,2.12
2017-12-13T20:14:33.364Z,2.33
2017-12-13T20:17:03.491Z,2.45
2017-12-13T20:19:34.023Z,2.97
2017-12-13T20:22:04.169Z,1.83
2017-12-13T20:24:34.202Z,1.80
2017-12-13T20:27:04.551Z,2.50
2017-12-13T20:29:34.590Z,1.70
2017-12-13T20:32:04.714Z,1.85
2017-12-13T20:34:36.152Z,1.60
2017-12-13T20:37:07.053Z,2.45
2017-12-13T20:39:37.354Z,3.55
2017-12-13T20:42:08.204Z,3.22
2017-12-13T20:44:38.332Z,1.53
2017-12-13T20:47:09.289Z,1.90
2017-12-13T20:49:40.062Z,3.00
2017-12-13T20:52:11.392Z,1.80
2017-12-13T20:54:42.283Z,1.87
2017-12-13T20:57:13.133Z,2.90
2017-12-13T20:59:43.284Z,3.10
2017-12-13T21:02:13.333Z,2.47
2017-12-13T21:04:43.716Z,1.52
2017-12-13T21:07:13.996Z,1.50
2017-12-13T21:09:44.825Z,1.60
2017-12-13T21:12:16.220Z,2.17
2017-12-13T21:14:47.078Z,1.83
2017-12-13T21:17:17.247Z,3.00
2017-12-13T21:19:47.739Z,3.10
2017-12-13T21:22:19.343Z,1.33
2017-12-13T21:24:49.463Z,1.50
2017-12-13T21:27:20.054Z,1.87
2017-12-13T21:29:53.156Z,2.85
2017-12-13T21:32:24.237Z,3.12
2017-12-13T21:34:55.980Z,2.33
2017-12-13T21:37:26.559Z,2.25
2017-12-13T21:39:57.876Z,1.83
2017-12-13T21:42:28.204Z,1.60
2017-12-13T21:44:58.944Z,1.80
2017-12-13T21:47:29.656Z,1.95
2017-12-13T21:49:59.964Z,2.20
2017-12-13T21:52:29.952Z,1.95
2017-12-13T21:55:00.544Z,1.52
2017-12-13T21:57:30.519Z,2.10
2017-12-13T22:00:00.540Z,1.40
2017-12-13T22:02:31.969Z,1.57
2017-12-13T22:05:02.522Z,1.50
2017-12-13T22:07:32.998Z,2.10
2017-12-13T22:10:04.591Z,1.40
2017-12-13T22:12:34.878Z,3.20
2017-12-13T22:15:05.381Z,2.80
2017-12-13T22:17:36.335Z,3.10
2017-12-13T22:23:39.556Z,2.87
2017-12-13T22:26:10.105Z,1.58
2017-12-13T22:28:40.973Z,1.50
2017-12-13T22:31:11.059Z,2.10
2017-12-13T22:33:41.147Z,1.62
2017-12-13T22:36:11.213Z,2.10
2017-12-13T22:38:42.109Z,1.40
2017-12-13T22:41:12.119Z,2.10
2017-12-13T22:43:43.048Z,2.10
2017-12-13T22:46:13.094Z,1.50
2017-12-13T22:48:43.147Z,2.05
2017-12-13T22:51:13.198Z,1.42
2017-12-13T22:53:43.811Z,2.27
2017-12-13T22:56:14.076Z,1.73
2017-12-13T22:58:44.222Z,1.57
2017-12-13T23:01:14.960Z,2.08
2017-12-13T23:03:45.051Z,2.10
2017-12-13T23:06:15.171Z,1.90
2017-12-13T23:08:45.312Z,1.90
2017-12-13T23:11:15.424Z,1.30
2017-12-13T23:13:45.471Z,1.70
2017-12-13T23:16:16.047Z,1.50
2017-12-13T23:18:46.567Z,2.35
2017-12-13T23:21:16.978Z,1.80
2017-12-13T23:23:47.214Z,2.00
2017-12-13T23:26:17.887Z,1.33
2017-12-13T23:28:48.473Z,1.80
2017-12-13T23:31:19.094Z,1.58
2017-12-13T23:33:50.331Z,1.85
2017-12-13T23:36:22.073Z,1.58
2017-12-13T23:38:53.403Z,2.70
2017-12-13T23:41:24.336Z,1.87
2017-12-13T23:43:55.987Z,1.90
2017-12-13T23:46:26.493Z,4.50
2017-12-13T23:48:57.327Z,2.12
2017-12-13T23:51:27.646Z,2.40
2017-12-13T23:53:58.028Z,1.23
2017-12-13T23:56:28.402Z,1.70
2017-12-13T23:58:59.624Z,1.48
